sensor_id;sensor_type;location;lat;lon;timestamp;pressure;altitude;pressure_sealevel;temperature;humidity
8758;BME280;4415;42.152;24.744;2023-09-19T00:00:20;99974.63;;;18.77;nan
8758;BME280;4415;42.152;24.744;2023-09-19T00:07:42;99954.69;;;18.68;nan
8758;BME280;4415;42.152;24.744;2023-09-19T00:12:35;99959.00;;;18.78;nan
8758;BME280;4415;42.152;24.744;2023-09-19T00:17:27;99951.75;;;18.73;nan
8758;BME280;4415;42.152;24.744;2023-09-19T00:22:20;99959.41;;;18.68;nan
8758;BME280;4415;42.152;24.744;2023-09-19T00:27:11;99949.38;;;18.72;nan
8758;BME280;4415;42.152;24.744;2023-09-19T00:32:02;99950.19;;;18.72;nan
8758;BME280;4415;42.152;24.744;2023-09-19T00:34:30;99932.28;;;18.54;nan
8758;BME280;4415;42.152;24.744;2023-09-19T00:39:21;99924.09;;;18.46;nan
8758;BME280;4415;42.152;24.744;2023-09-19T00:41:47;99956.56;;;18.56;nan
8758;BME280;4415;42.152;24.744;2023-09-19T00:44:12;99951.75;;;18.53;nan
8758;BME280;4415;42.152;24.744;2023-09-19T00:49:03;99946.63;;;18.43;nan
8758;BME280;4415;42.152;24.744;2023-09-19T00:51:29;99949.72;;;18.41;nan
8758;BME280;4415;42.152;24.744;2023-09-19T00:53:55;99954.06;;;18.34;nan
8758;BME280;4415;42.152;24.744;2023-09-19T00:56:20;99931.00;;;18.23;nan
8758;BME280;4415;42.152;24.744;2023-09-19T00:58:46;99955.00;;;18.17;nan
8758;BME280;4415;42.152;24.744;2023-09-19T01:01:13;99942.16;;;18.09;nan
8758;BME280;4415;42.152;24.744;2023-09-19T01:03:41;99957.47;;;18.01;nan
8758;BME280;4415;42.152;24.744;2023-09-19T01:06:07;99933.91;;;17.80;nan
8758;BME280;4415;42.152;24.744;2023-09-19T01:08:34;99955.13;;;17.83;nan
8758;BME280;4415;42.152;24.744;2023-09-19T01:11:40;99954.38;;;17.65;nan
8758;BME280;4415;42.152;24.744;2023-09-19T01:22:29;99934.31;;;17.35;nan
8758;BME280;4415;42.152;24.744;2023-09-19T01:28:06;99942.84;;;17.34;nan
8758;BME280;4415;42.152;24.744;2023-09-19T01:30:43;99938.47;;;17.41;nan
8758;BME280;4415;42.152;24.744;2023-09-19T01:38:05;99925.00;;;17.19;nan
8758;BME280;4415;42.152;24.744;2023-09-19T01:40:33;99942.19;;;17.37;nan
8758;BME280;4415;42.152;24.744;2023-09-19T01:48:35;99942.84;;;17.34;nan
8758;BME280;4415;42.152;24.744;2023-09-19T01:51:06;99929.34;;;17.29;nan
8758;BME280;4415;42.152;24.744;2023-09-19T01:53:59;99937.53;;;17.37;nan
8758;BME280;4415;42.152;24.744;2023-09-19T01:56:35;99930.00;;;17.26;nan
8758;BME280;4415;42.152;24.744;2023-09-19T01:59:10;99945.72;;;17.29;nan
8758;BME280;4415;42.152;24.744;2023-09-19T02:01:39;99933.53;;;17.35;nan
8758;BME280;4415;42.152;24.744;2023-09-19T02:11:21;99922.59;;;17.35;nan
8758;BME280;4415;42.152;24.744;2023-09-19T02:13:47;99939.63;;;17.32;nan
8758;BME280;4415;42.152;24.744;2023-09-19T02:18:38;99930.94;;;17.30;nan
8758;BME280;4415;42.152;24.744;2023-09-19T02:28:26;99926.16;;;17.27;nan
8758;BME280;4415;42.152;24.744;2023-09-19T02:30:55;99924.38;;;17.22;nan
8758;BME280;4415;42.152;24.744;2023-09-19T02:33:21;99916.84;;;17.11;nan
8758;BME280;4415;42.152;24.744;2023-09-19T02:35:46;99924.22;;;17.02;nan
8758;BME280;4415;42.152;24.744;2023-09-19T02:38:12;99920.84;;;16.96;nan
8758;BME280;4415;42.152;24.744;2023-09-19T02:45:30;99915.56;;;16.82;nan
8758;BME280;4415;42.152;24.744;2023-09-19T02:47:55;99909.78;;;16.75;nan
8758;BME280;4415;42.152;24.744;2023-09-19T02:50:21;99915.25;;;16.75;nan
8758;BME280;4415;42.152;24.744;2023-09-19T02:52:47;99886.34;;;16.74;nan
8758;BME280;4415;42.152;24.744;2023-09-19T02:55:15;99924.22;;;16.67;nan
8758;BME280;4415;42.152;24.744;2023-09-19T02:58:02;99919.72;;;16.71;nan
8758;BME280;4415;42.152;24.744;2023-09-19T03:02:56;99925.34;;;16.75;nan
8758;BME280;4415;42.152;24.744;2023-09-19T03:05:22;99899.03;;;16.62;nan
8758;BME280;4415;42.152;24.744;2023-09-19T03:07:49;99914.94;;;16.68;nan
8758;BME280;4415;42.152;24.744;2023-09-19T03:12:41;99902.72;;;16.57;nan
8758;BME280;4415;42.152;24.744;2023-09-19T03:15:08;99910.44;;;16.55;nan
8758;BME280;4415;42.152;24.744;2023-09-19T03:17:36;99918.13;;;16.70;nan
8758;BME280;4415;42.152;24.744;2023-09-19T03:20:03;99888.63;;;16.55;nan
8758;BME280;4415;42.152;24.744;2023-09-19T03:22:34;99901.56;;;16.50;nan
8758;BME280;4415;42.152;24.744;2023-09-19T03:27:25;99907.03;;;16.50;nan
8758;BME280;4415;42.152;24.744;2023-09-19T03:29:52;99904.59;;;16.48;nan
8758;BME280;4415;42.152;24.744;2023-09-19T03:32:18;99911.03;;;16.52;nan
8758;BME280;4415;42.152;24.744;2023-09-19T03:34:44;99909.41;;;16.51;nan
8758;BME280;4415;42.152;24.744;2023-09-19T03:37:09;99874.75;;;16.26;nan
8758;BME280;4415;42.152;24.744;2023-09-19T03:39:35;99905.72;;;16.38;nan
8758;BME280;4415;42.152;24.744;2023-09-19T03:42:01;99916.28;;;16.31;nan
8758;BME280;4415;42.152;24.744;2023-09-19T03:44:29;99907.78;;;16.33;nan
8758;BME280;4415;42.152;24.744;2023-09-19T03:46:55;99838.34;;;16.30;nan
8758;BME280;4415;42.152;24.744;2023-09-19T03:49:21;99910.66;;;16.28;nan
8758;BME280;4415;42.152;24.744;2023-09-19T03:56:38;99893.94;;;16.21;nan
8758;BME280;4415;42.152;24.744;2023-09-19T03:59:03;99912.25;;;16.29;nan
8758;BME280;4415;42.152;24.744;2023-09-19T04:03:57;99919.66;;;16.37;nan
8758;BME280;4415;42.152;24.744;2023-09-19T04:06:22;99925.91;;;16.37;nan
8758;BME280;4415;42.152;24.744;2023-09-19T04:08:48;99915.00;;;16.37;nan
8758;BME280;4415;42.152;24.744;2023-09-19T04:13:39;99929.28;;;16.43;nan
8758;BME280;4415;42.152;24.744;2023-09-19T04:18:32;99851.94;;;16.22;nan
8758;BME280;4415;42.152;24.744;2023-09-19T04:20:58;99925.19;;;16.71;nan
8758;BME280;4415;42.152;24.744;2023-09-19T04:23:27;99927.13;;;16.79;nan
8758;BME280;4415;42.152;24.744;2023-09-19T04:25:53;99925.50;;;16.95;nan
8758;BME280;4415;42.152;24.744;2023-09-19T04:28:18;99925.94;;;17.58;nan
8758;BME280;4415;42.152;24.744;2023-09-19T04:30:44;99929.59;;;18.08;nan
8758;BME280;4415;42.152;24.744;2023-09-19T04:38:00;99922.19;;;19.86;nan
8758;BME280;4415;42.152;24.744;2023-09-19T04:40:26;99924.03;;;20.42;nan
8758;BME280;4415;42.152;24.744;2023-09-19T04:42:55;99922.72;;;20.76;nan
8758;BME280;4415;42.152;24.744;2023-09-19T04:45:27;99913.28;;;21.29;nan
8758;BME280;4415;42.152;24.744;2023-09-19T04:50:19;99997.22;;;22.60;nan
8758;BME280;4415;42.152;24.744;2023-09-19T04:52:49;99923.66;;;23.34;nan
8758;BME280;4415;42.152;24.744;2023-09-19T04:55:16;99916.38;;;24.09;nan
8758;BME280;4415;42.152;24.744;2023-09-19T04:57:46;99910.38;;;24.30;nan
8758;BME280;4415;42.152;24.744;2023-09-19T05:00:22;99914.06;;;24.67;nan
8758;BME280;4415;42.152;24.744;2023-09-19T05:02:55;99923.94;;;24.95;nan
8758;BME280;4415;42.152;24.744;2023-09-19T05:05:21;99908.31;;;25.79;nan
8758;BME280;4415;42.152;24.744;2023-09-19T05:07:48;99873.78;;;25.29;nan
8758;BME280;4415;42.152;24.744;2023-09-19T05:10:14;99935.88;;;25.65;nan
8758;BME280;4415;42.152;24.744;2023-09-19T05:12:40;99930.44;;;25.76;nan
8758;BME280;4415;42.152;24.744;2023-09-19T05:15:06;99936.81;;;25.83;nan
8758;BME280;4415;42.152;24.744;2023-09-19T05:17:33;99926.84;;;26.16;nan
8758;BME280;4415;42.152;24.744;2023-09-19T05:22:28;99868.13;;;27.90;nan
8758;BME280;4415;42.152;24.744;2023-09-19T05:24:54;99937.97;;;28.27;nan
8758;BME280;4415;42.152;24.744;2023-09-19T05:27:19;99918.72;;;27.16;nan
8758;BME280;4415;42.152;24.744;2023-09-19T05:29:47;99934.00;;;28.28;nan
8758;BME280;4415;42.152;24.744;2023-09-19T05:32:12;99924.47;;;28.18;nan
8758;BME280;4415;42.152;24.744;2023-09-19T05:34:38;99915.56;;;29.01;nan
8758;BME280;4415;42.152;24.744;2023-09-19T05:37:04;99926.88;;;28.23;nan
8758;BME280;4415;42.152;24.744;2023-09-19T05:41:59;99872.94;;;29.87;nan
8758;BME280;4415;42.152;24.744;2023-09-19T05:44:28;99940.00;;;29.56;nan
8758;BME280;4415;42.152;24.744;2023-09-19T05:46:54;99951.41;;;28.78;nan
8758;BME280;4415;42.152;24.744;2023-09-19T05:49:21;99937.16;;;28.41;nan
8758;BME280;4415;42.152;24.744;2023-09-19T05:54:12;99940.75;;;28.66;nan
8758;BME280;4415;42.152;24.744;2023-09-19T05:56:38;99936.38;;;27.84;nan
8758;BME280;4415;42.152;24.744;2023-09-19T05:59:03;99926.00;;;28.79;nan
8758;BME280;4415;42.152;24.744;2023-09-19T06:01:30;99937.19;;;28.09;nan
8758;BME280;4415;42.152;24.744;2023-09-19T06:06:23;99922.03;;;28.66;nan
8758;BME280;4415;42.152;24.744;2023-09-19T06:08:49;99920.47;;;27.84;nan
8758;BME280;4415;42.152;24.744;2023-09-19T06:11:15;99924.22;;;26.98;nan
8758;BME280;4415;42.152;24.744;2023-09-19T06:16:06;99929.00;;;27.12;nan
8758;BME280;4415;42.152;24.744;2023-09-19T06:18:32;99903.69;;;27.21;nan
8758;BME280;4415;42.152;24.744;2023-09-19T06:20:59;99907.75;;;28.57;nan
8758;BME280;4415;42.152;24.744;2023-09-19T06:23:25;99903.06;;;28.12;nan
8758;BME280;4415;42.152;24.744;2023-09-19T06:25:54;99922.84;;;28.70;nan
8758;BME280;4415;42.152;24.744;2023-09-19T06:28:20;99928.38;;;28.84;nan
8758;BME280;4415;42.152;24.744;2023-09-19T06:30:49;99924.09;;;29.49;nan
8758;BME280;4415;42.152;24.744;2023-09-19T06:33:15;99915.09;;;29.93;nan
8758;BME280;4415;42.152;24.744;2023-09-19T06:35:42;99920.19;;;29.39;nan
8758;BME280;4415;42.152;24.744;2023-09-19T06:38:10;99911.84;;;30.01;nan
8758;BME280;4415;42.152;24.744;2023-09-19T06:40:38;99919.66;;;30.95;nan
8758;BME280;4415;42.152;24.744;2023-09-19T06:43:05;99915.44;;;31.14;nan
8758;BME280;4415;42.152;24.744;2023-09-19T06:45:30;99911.16;;;30.72;nan
8758;BME280;4415;42.152;24.744;2023-09-19T06:47:57;99861.38;;;29.34;nan
8758;BME280;4415;42.152;24.744;2023-09-19T06:50:23;99907.72;;;30.17;nan
8758;BME280;4415;42.152;24.744;2023-09-19T06:52:50;99908.19;;;31.20;nan
8758;BME280;4415;42.152;24.744;2023-09-19T06:55:20;99908.41;;;30.28;nan
8758;BME280;4415;42.152;24.744;2023-09-19T06:57:47;99901.81;;;30.08;nan
8758;BME280;4415;42.152;24.744;2023-09-19T07:00:13;99990.25;;;29.27;nan
8758;BME280;4415;42.152;24.744;2023-09-19T07:03:02;99892.69;;;27.74;nan
8758;BME280;4415;42.152;24.744;2023-09-19T07:05:30;99912.53;;;28.64;nan
8758;BME280;4415;42.152;24.744;2023-09-19T07:07:57;99899.91;;;30.01;nan
8758;BME280;4415;42.152;24.744;2023-09-19T07:10:27;99902.84;;;30.28;nan
8758;BME280;4415;42.152;24.744;2023-09-19T07:15:22;99901.59;;;30.73;nan
8758;BME280;4415;42.152;24.744;2023-09-19T07:17:48;99902.09;;;30.98;nan
8758;BME280;4415;42.152;24.744;2023-09-19T07:20:14;99971.28;;;31.44;nan
8758;BME280;4415;42.152;24.744;2023-09-19T07:22:41;99893.88;;;31.75;nan
8758;BME280;4415;42.152;24.744;2023-09-19T07:25:07;99899.88;;;33.25;nan
8758;BME280;4415;42.152;24.744;2023-09-19T07:27:33;99889.94;;;33.05;nan
8758;BME280;4415;42.152;24.744;2023-09-19T07:29:59;99902.78;;;33.74;nan
8758;BME280;4415;42.152;24.744;2023-09-19T07:32:24;99893.00;;;35.79;nan
8758;BME280;4415;42.152;24.744;2023-09-19T07:34:49;99883.16;;;37.61;nan
8758;BME280;4415;42.152;24.744;2023-09-19T07:37:15;99886.81;;;37.09;nan
8758;BME280;4415;42.152;24.744;2023-09-19T07:39:41;99882.06;;;35.94;nan
8758;BME280;4415;42.152;24.744;2023-09-19T07:42:07;99872.84;;;36.96;nan
8758;BME280;4415;42.152;24.744;2023-09-19T07:44:35;99817.59;;;36.00;nan
8758;BME280;4415;42.152;24.744;2023-09-19T07:47:00;99882.88;;;35.69;nan
8758;BME280;4415;42.152;24.744;2023-09-19T07:49:28;99870.44;;;37.17;nan
8758;BME280;4415;42.152;24.744;2023-09-19T07:51:54;99870.03;;;37.05;nan
8758;BME280;4415;42.152;24.744;2023-09-19T07:54:20;99876.09;;;36.05;nan
8758;BME280;4415;42.152;24.744;2023-09-19T07:56:46;99872.41;;;35.19;nan
8758;BME280;4415;42.152;24.744;2023-09-19T07:59:11;99875.38;;;37.74;nan
8758;BME280;4415;42.152;24.744;2023-09-19T08:01:37;99847.66;;;36.59;nan
8758;BME280;4415;42.152;24.744;2023-09-19T08:04:07;99841.94;;;35.43;nan
8758;BME280;4415;42.152;24.744;2023-09-19T08:06:32;99849.72;;;35.64;nan
8758;BME280;4415;42.152;24.744;2023-09-19T08:08:58;99835.56;;;37.63;nan
8758;BME280;4415;42.152;24.744;2023-09-19T08:11:25;99846.41;;;35.53;nan
8758;BME280;4415;42.152;24.744;2023-09-19T08:13:56;99839.69;;;34.59;nan
8758;BME280;4415;42.152;24.744;2023-09-19T08:16:21;99847.34;;;35.50;nan
8758;BME280;4415;42.152;24.744;2023-09-19T08:18:48;99845.56;;;34.48;nan
8758;BME280;4415;42.152;24.744;2023-09-19T08:21:14;99834.06;;;35.38;nan
8758;BME280;4415;42.152;24.744;2023-09-19T08:23:40;99830.97;;;36.08;nan
8758;BME280;4415;42.152;24.744;2023-09-19T08:26:07;99839.22;;;35.77;nan
8758;BME280;4415;42.152;24.744;2023-09-19T08:28:36;99830.91;;;37.08;nan
8758;BME280;4415;42.152;24.744;2023-09-19T08:31:06;99835.81;;;35.95;nan
8758;BME280;4415;42.152;24.744;2023-09-19T08:33:36;99835.09;;;35.57;nan
8758;BME280;4415;42.152;24.744;2023-09-19T08:38:31;99828.25;;;32.69;nan
8758;BME280;4415;42.152;24.744;2023-09-19T08:41:04;99819.47;;;33.42;nan
8758;BME280;4415;42.152;24.744;2023-09-19T08:43:30;99825.09;;;34.35;nan
8758;BME280;4415;42.152;24.744;2023-09-19T08:46:19;99804.28;;;36.13;nan
8758;BME280;4415;42.152;24.744;2023-09-19T08:49:05;99811.13;;;36.24;nan
8758;BME280;4415;42.152;24.744;2023-09-19T08:51:41;99802.88;;;36.30;nan
8758;BME280;4415;42.152;24.744;2023-09-19T08:54:29;99790.97;;;36.69;nan
8758;BME280;4415;42.152;24.744;2023-09-19T08:57:00;99793.69;;;37.43;nan
8758;BME280;4415;42.152;24.744;2023-09-19T08:59:32;99794.03;;;39.32;nan
8758;BME280;4415;42.152;24.744;2023-09-19T09:02:00;99794.28;;;38.33;nan
8758;BME280;4415;42.152;24.744;2023-09-19T09:04:26;99784.84;;;37.81;nan
8758;BME280;4415;42.152;24.744;2023-09-19T09:06:53;99801.75;;;38.72;nan
8758;BME280;4415;42.152;24.744;2023-09-19T09:09:20;99788.84;;;37.44;nan
8758;BME280;4415;42.152;24.744;2023-09-19T09:11:48;99788.47;;;37.33;nan
8758;BME280;4415;42.152;24.744;2023-09-19T09:14:16;99788.41;;;37.15;nan
8758;BME280;4415;42.152;24.744;2023-09-19T09:16:42;99787.50;;;35.75;nan
8758;BME280;4415;42.152;24.744;2023-09-19T09:19:07;99801.81;;;35.43;nan
8758;BME280;4415;42.152;24.744;2023-09-19T09:21:33;99789.75;;;36.79;nan
8758;BME280;4415;42.152;24.744;2023-09-19T09:24:26;99778.38;;;36.39;nan
8758;BME280;4415;42.152;24.744;2023-09-19T09:26:53;99773.81;;;37.56;nan
8758;BME280;4415;42.152;24.744;2023-09-19T09:29:44;99769.81;;;38.11;nan
8758;BME280;4415;42.152;24.744;2023-09-19T09:32:29;99750.91;;;36.96;nan
8758;BME280;4415;42.152;24.744;2023-09-19T09:35:00;99761.25;;;36.03;nan
8758;BME280;4415;42.152;24.744;2023-09-19T09:37:26;99764.63;;;36.63;nan
8758;BME280;4415;42.152;24.744;2023-09-19T09:39:57;99743.28;;;36.75;nan
8758;BME280;4415;42.152;24.744;2023-09-19T09:42:36;99754.81;;;36.68;nan
8758;BME280;4415;42.152;24.744;2023-09-19T09:48:02;99753.84;;;35.12;nan
8758;BME280;4415;42.152;24.744;2023-09-19T09:50:46;99764.34;;;34.29;nan
8758;BME280;4415;42.152;24.744;2023-09-19T09:53:29;99751.66;;;34.24;nan
8758;BME280;4415;42.152;24.744;2023-09-19T09:56:07;99754.28;;;33.86;nan
8758;BME280;4415;42.152;24.744;2023-09-19T09:58:51;99738.84;;;32.97;nan
8758;BME280;4415;42.152;24.744;2023-09-19T10:01:20;99738.72;;;32.69;nan
8758;BME280;4415;42.152;24.744;2023-09-19T10:03:46;99740.16;;;31.98;nan
8758;BME280;4415;42.152;24.744;2023-09-19T10:06:17;99752.00;;;29.85;nan
8758;BME280;4415;42.152;24.744;2023-09-19T10:09:01;99744.91;;;29.73;nan
8758;BME280;4415;42.152;24.744;2023-09-19T10:11:42;99748.25;;;30.36;nan
8758;BME280;4415;42.152;24.744;2023-09-19T10:14:10;99741.97;;;30.89;nan
8758;BME280;4415;42.152;24.744;2023-09-19T10:16:40;99736.72;;;31.21;nan
8758;BME280;4415;42.152;24.744;2023-09-19T10:19:23;99740.88;;;32.02;nan
8758;BME280;4415;42.152;24.744;2023-09-19T10:21:55;99735.41;;;32.74;nan
8758;BME280;4415;42.152;24.744;2023-09-19T10:24:22;99733.56;;;31.65;nan
8758;BME280;4415;42.152;24.744;2023-09-19T10:26:53;99721.00;;;31.77;nan
8758;BME280;4415;42.152;24.744;2023-09-19T10:29:21;99784.06;;;32.41;nan
8758;BME280;4415;42.152;24.744;2023-09-19T10:31:52;99725.28;;;33.32;nan
8758;BME280;4415;42.152;24.744;2023-09-19T10:34:19;99709.31;;;32.61;nan
8758;BME280;4415;42.152;24.744;2023-09-19T10:36:46;99714.31;;;31.71;nan
8758;BME280;4415;42.152;24.744;2023-09-19T10:39:16;99704.28;;;32.72;nan
8758;BME280;4415;42.152;24.744;2023-09-19T10:41:50;99707.78;;;32.60;nan
8758;BME280;4415;42.152;24.744;2023-09-19T10:44:23;99691.16;;;31.70;nan
8758;BME280;4415;42.152;24.744;2023-09-19T10:46:51;99691.38;;;31.13;nan
8758;BME280;4415;42.152;24.744;2023-09-19T10:49:18;99691.84;;;30.55;nan
8758;BME280;4415;42.152;24.744;2023-09-19T10:51:45;99688.72;;;31.30;nan
8758;BME280;4415;42.152;24.744;2023-09-19T10:54:16;99653.25;;;31.50;nan
8758;BME280;4415;42.152;24.744;2023-09-19T10:56:46;99676.44;;;31.00;nan
8758;BME280;4415;42.152;24.744;2023-09-19T10:59:18;99680.53;;;32.24;nan
8758;BME280;4415;42.152;24.744;2023-09-19T11:01:45;99668.78;;;32.85;nan
8758;BME280;4415;42.152;24.744;2023-09-19T11:04:32;99664.59;;;32.93;nan
8758;BME280;4415;42.152;24.744;2023-09-19T11:07:10;99669.31;;;32.96;nan
8758;BME280;4415;42.152;24.744;2023-09-19T11:15:07;99662.50;;;32.81;nan
8758;BME280;4415;42.152;24.744;2023-09-19T11:17:34;99643.53;;;32.72;nan
8758;BME280;4415;42.152;24.744;2023-09-19T11:30:39;99638.31;;;31.79;nan
8758;BME280;4415;42.152;24.744;2023-09-19T11:33:28;99617.59;;;30.88;nan
8758;BME280;4415;42.152;24.744;2023-09-19T11:36:06;99617.56;;;31.38;nan
8758;BME280;4415;42.152;24.744;2023-09-19T11:44:32;99617.44;;;30.48;nan
8758;BME280;4415;42.152;24.744;2023-09-19T11:46:52;99609.84;;;30.76;nan
8758;BME280;4415;42.152;24.744;2023-09-19T11:49:19;99582.75;;;30.76;nan
8758;BME280;4415;42.152;24.744;2023-09-19T11:51:51;99590.84;;;30.67;nan
8758;BME280;4415;42.152;24.744;2023-09-19T11:54:19;99584.53;;;30.10;nan
8758;BME280;4415;42.152;24.744;2023-09-19T11:56:51;99606.25;;;29.91;nan
8758;BME280;4415;42.152;24.744;2023-09-19T12:04:43;99586.03;;;31.17;nan
8758;BME280;4415;42.152;24.744;2023-09-19T12:07:16;99599.50;;;30.99;nan
8758;BME280;4415;42.152;24.744;2023-09-19T12:09:47;99575.59;;;31.22;nan
8758;BME280;4415;42.152;24.744;2023-09-19T12:12:23;99568.00;;;31.42;nan
8758;BME280;4415;42.152;24.744;2023-09-19T12:17:20;99572.28;;;31.69;nan
8758;BME280;4415;42.152;24.744;2023-09-19T12:19:52;99563.97;;;31.86;nan
8758;BME280;4415;42.152;24.744;2023-09-19T12:22:18;99565.25;;;31.61;nan
8758;BME280;4415;42.152;24.744;2023-09-19T12:24:45;99572.63;;;31.09;nan
8758;BME280;4415;42.152;24.744;2023-09-19T12:27:12;99567.91;;;30.56;nan
8758;BME280;4415;42.152;24.744;2023-09-19T12:29:48;99555.03;;;30.12;nan
8758;BME280;4415;42.152;24.744;2023-09-19T12:32:34;99553.03;;;30.39;nan
8758;BME280;4415;42.152;24.744;2023-09-19T12:35:01;99570.16;;;30.11;nan
8758;BME280;4415;42.152;24.744;2023-09-19T12:37:32;99561.66;;;30.48;nan
8758;BME280;4415;42.152;24.744;2023-09-19T12:40:09;99555.81;;;31.12;nan
8758;BME280;4415;42.152;24.744;2023-09-19T12:42:47;99555.88;;;31.09;nan
8758;BME280;4415;42.152;24.744;2023-09-19T12:45:14;99557.78;;;30.92;nan
8758;BME280;4415;42.152;24.744;2023-09-19T12:47:41;99551.84;;;30.10;nan
8758;BME280;4415;42.152;24.744;2023-09-19T12:50:26;99554.22;;;30.65;nan
8758;BME280;4415;42.152;24.744;2023-09-19T12:52:55;99545.25;;;30.77;nan
8758;BME280;4415;42.152;24.744;2023-09-19T12:55:29;99521.47;;;30.69;nan
8758;BME280;4415;42.152;24.744;2023-09-19T13:00:41;99542.09;;;31.22;nan
8758;BME280;4415;42.152;24.744;2023-09-19T13:06:03;99530.19;;;31.17;nan
8758;BME280;4415;42.152;24.744;2023-09-19T13:08:39;99526.88;;;30.80;nan
8758;BME280;4415;42.152;24.744;2023-09-19T13:22:00;99526.88;;;30.30;nan
8758;BME280;4415;42.152;24.744;2023-09-19T13:26:52;99527.97;;;30.63;nan
8758;BME280;4415;42.152;24.744;2023-09-19T13:32:01;99518.88;;;30.82;nan
8758;BME280;4415;42.152;24.744;2023-09-19T13:34:27;99505.66;;;30.63;nan
8758;BME280;4415;42.152;24.744;2023-09-19T13:36:54;99507.00;;;30.28;nan
8758;BME280;4415;42.152;24.744;2023-09-19T13:39:20;99496.25;;;30.53;nan
8758;BME280;4415;42.152;24.744;2023-09-19T13:41:47;99497.78;;;30.57;nan
8758;BME280;4415;42.152;24.744;2023-09-19T13:44:13;99500.16;;;30.59;nan
8758;BME280;4415;42.152;24.744;2023-09-19T13:46:39;99507.84;;;30.75;nan
8758;BME280;4415;42.152;24.744;2023-09-19T13:49:05;99495.38;;;30.33;nan
8758;BME280;4415;42.152;24.744;2023-09-19T13:51:31;99495.97;;;30.21;nan
8758;BME280;4415;42.152;24.744;2023-09-19T13:53:58;99493.66;;;30.16;nan
8758;BME280;4415;42.152;24.744;2023-09-19T13:56:24;99485.94;;;30.00;nan
8758;BME280;4415;42.152;24.744;2023-09-19T13:58:53;99484.91;;;29.90;nan
8758;BME280;4415;42.152;24.744;2023-09-19T14:01:19;99487.13;;;29.72;nan
8758;BME280;4415;42.152;24.744;2023-09-19T14:03:44;99482.47;;;29.92;nan
8758;BME280;4415;42.152;24.744;2023-09-19T14:08:46;99480.88;;;29.65;nan
8758;BME280;4415;42.152;24.744;2023-09-19T14:11:13;99471.44;;;29.55;nan
8758;BME280;4415;42.152;24.744;2023-09-19T14:13:39;99488.88;;;28.88;nan
8758;BME280;4415;42.152;24.744;2023-09-19T14:16:06;99472.75;;;29.10;nan
8758;BME280;4415;42.152;24.744;2023-09-19T14:18:32;99456.22;;;28.96;nan
8758;BME280;4415;42.152;24.744;2023-09-19T14:20:57;99478.94;;;28.91;nan
8758;BME280;4415;42.152;24.744;2023-09-19T14:23:23;99467.34;;;28.96;nan
8758;BME280;4415;42.152;24.744;2023-09-19T14:25:50;99476.81;;;29.02;nan
8758;BME280;4415;42.152;24.744;2023-09-19T14:28:15;99398.06;;;29.08;nan
8758;BME280;4415;42.152;24.744;2023-09-19T14:30:40;99452.16;;;29.04;nan
8758;BME280;4415;42.152;24.744;2023-09-19T14:33:06;99454.53;;;29.05;nan
8758;BME280;4415;42.152;24.744;2023-09-19T14:35:32;99460.94;;;29.02;nan
8758;BME280;4415;42.152;24.744;2023-09-19T14:37:57;99466.50;;;29.02;nan
8758;BME280;4415;42.152;24.744;2023-09-19T14:40:23;99456.22;;;28.96;nan
8758;BME280;4415;42.152;24.744;2023-09-19T14:42:48;99460.19;;;28.98;nan
8758;BME280;4415;42.152;24.744;2023-09-19T14:45:14;99470.44;;;29.05;nan
8758;BME280;4415;42.152;24.744;2023-09-19T14:47:43;99464.16;;;28.97;nan
8758;BME280;4415;42.152;24.744;2023-09-19T14:50:09;99471.34;;;28.95;nan
8758;BME280;4415;42.152;24.744;2023-09-19T14:52:35;99476.22;;;28.83;nan
8758;BME280;4415;42.152;24.744;2023-09-19T14:55:01;99479.56;;;28.68;nan
8758;BME280;4415;42.152;24.744;2023-09-19T14:57:27;99478.94;;;28.46;nan
8758;BME280;4415;42.152;24.744;2023-09-19T14:59:52;99463.06;;;28.43;nan
8758;BME280;4415;42.152;24.744;2023-09-19T15:02:18;99469.53;;;28.33;nan
8758;BME280;4415;42.152;24.744;2023-09-19T15:07:12;99472.09;;;28.10;nan
8758;BME280;4415;42.152;24.744;2023-09-19T15:12:03;99470.56;;;27.95;nan
8758;BME280;4415;42.152;24.744;2023-09-19T15:14:28;99479.31;;;27.93;nan
8758;BME280;4415;42.152;24.744;2023-09-19T15:16:55;99477.84;;;27.75;nan
8758;BME280;4415;42.152;24.744;2023-09-19T15:19:20;99467.63;;;27.57;nan
8758;BME280;4415;42.152;24.744;2023-09-19T15:21:47;99453.44;;;27.41;nan
8758;BME280;4415;42.152;24.744;2023-09-19T15:24:13;99470.81;;;27.59;nan
8758;BME280;4415;42.152;24.744;2023-09-19T15:26:38;99486.72;;;27.48;nan
8758;BME280;4415;42.152;24.744;2023-09-19T15:29:09;99493.88;;;27.32;nan
8758;BME280;4415;42.152;24.744;2023-09-19T15:31:37;99465.41;;;27.17;nan
8758;BME280;4415;42.152;24.744;2023-09-19T15:34:03;99485.16;;;27.33;nan
8758;BME280;4415;42.152;24.744;2023-09-19T15:36:30;99493.88;;;27.42;nan
8758;BME280;4415;42.152;24.744;2023-09-19T15:39:06;99494.19;;;27.55;nan
8758;BME280;4415;42.152;24.744;2023-09-19T15:41:34;99489.88;;;27.50;nan
8758;BME280;4415;42.152;24.744;2023-09-19T15:44:01;99489.88;;;27.50;nan
8758;BME280;4415;42.152;24.744;2023-09-19T15:46:27;99486.72;;;27.48;nan
8758;BME280;4415;42.152;24.744;2023-09-19T15:48:54;99495.41;;;27.50;nan
8758;BME280;4415;42.152;24.744;2023-09-19T15:51:20;99484.38;;;27.40;nan
8758;BME280;4415;42.152;24.744;2023-09-19T15:53:47;99497.03;;;27.44;nan
8758;BME280;4415;42.152;24.744;2023-09-19T15:56:14;99488.31;;;27.35;nan
8758;BME280;4415;42.152;24.744;2023-09-19T15:58:51;99474.91;;;27.16;nan
8758;BME280;4415;42.152;24.744;2023-09-19T16:01:16;99486.72;;;27.34;nan
8758;BME280;4415;42.152;24.744;2023-09-19T16:03:46;99468.56;;;27.19;nan
8758;BME280;4415;42.152;24.744;2023-09-19T16:06:19;99425.78;;;27.17;nan
8758;BME280;4415;42.152;24.744;2023-09-19T16:08:47;99478.88;;;27.22;nan
8758;BME280;4415;42.152;24.744;2023-09-19T16:11:13;99477.31;;;27.14;nan
8758;BME280;4415;42.152;24.744;2023-09-19T16:13:39;99484.38;;;27.26;nan
8758;BME280;4415;42.152;24.744;2023-09-19T16:16:07;99469.38;;;27.16;nan
8758;BME280;4415;42.152;24.744;2023-09-19T16:18:33;99417.88;;;27.12;nan
8758;BME280;4415;42.152;24.744;2023-09-19T16:21:06;99480.44;;;27.23;nan
8758;BME280;4415;42.152;24.744;2023-09-19T16:26:09;99467.03;;;27.11;nan
8758;BME280;4415;42.152;24.744;2023-09-19T16:33:36;99482.91;;;27.03;nan
8758;BME280;4415;42.152;24.744;2023-09-19T16:36:02;99483.69;;;27.00;nan
8758;BME280;4415;42.152;24.744;2023-09-19T16:38:28;99467.88;;;26.90;nan